createdAt,value
2022-10-07T00:06:27.836Z,13
2022-10-07T00:22:10.361Z,16
2022-10-07T00:37:52.648Z,11.5
2022-10-07T00:53:35.093Z,14.6
2022-10-07T01:09:17.915Z,13.7
2022-10-07T01:25:00.482Z,11
2022-10-07T01:40:42.728Z,13.2
2022-10-07T01:56:25.399Z,14.5
2022-10-07T02:12:07.599Z,12.1
2022-10-07T02:27:50.115Z,13
2022-10-07T02:43:33.157Z,13.3
2022-10-07T02:59:15.646Z,15.3
2022-10-07T03:14:58.796Z,13.7
2022-10-07T03:30:41.093Z,13.8
2022-10-07T03:46:24.103Z,14
2022-10-07T04:02:06.353Z,16.9
2022-10-07T04:17:48.753Z,16.4
2022-10-07T04:33:31.155Z,18.1
2022-10-07T04:49:13.644Z,20.4
2022-10-07T05:04:56.155Z,17
2022-10-07T05:20:38.792Z,20.29
2022-10-07T05:36:21.347Z,18.79
2022-10-07T05:52:03.720Z,24.3
2022-10-07T06:07:46.934Z,17.5
2022-10-07T06:23:29.892Z,18.4
2022-10-07T06:39:12.938Z,18.5
2022-10-07T06:54:56.032Z,17.5
2022-10-07T07:10:38.618Z,16.2
2022-10-07T07:26:21.388Z,13.6
2022-10-07T07:42:04.364Z,16.29
2022-10-07T07:57:46.995Z,16.29
2022-10-07T08:13:29.705Z,8.2
2022-10-07T08:29:12.503Z,9.89
2022-10-07T08:44:54.522Z,9
2022-10-07T09:00:37.069Z,9.1
2022-10-07T09:16:19.291Z,9.3
2022-10-07T09:32:02.262Z,9.8
2022-10-07T09:47:45.083Z,9.39
2022-10-07T10:03:27.219Z,7.9
2022-10-07T10:19:09.282Z,10.7
2022-10-07T10:34:52.159Z,8.39
2022-10-07T10:50:34.282Z,8.1
2022-10-07T11:06:16.931Z,7.4
2022-10-07T11:21:59.534Z,6.3
2022-10-07T11:37:41.439Z,5.9
2022-10-07T11:38:28.667Z,8.5
2022-10-07T11:54:11.283Z,5
2022-10-07T12:09:53.891Z,4.6
2022-10-07T12:25:36.530Z,6.1
2022-10-07T12:41:19.112Z,5.4
2022-10-07T12:57:01.846Z,4.3
2022-10-07T13:12:44.629Z,3.7
2022-10-07T13:28:27.168Z,4.8
2022-10-07T13:44:09.383Z,4.8
2022-10-07T13:59:51.883Z,4.69
2022-10-07T14:15:34.676Z,5.8
2022-10-07T14:31:17.318Z,3.9
2022-10-07T14:46:59.514Z,4.6
2022-10-07T15:02:42.329Z,4.4
2022-10-07T15:18:24.927Z,5.2
2022-10-07T15:34:07.899Z,5.4
2022-10-07T15:49:50.274Z,5.7
2022-10-07T16:05:32.753Z,5.1
2022-10-07T16:21:15.066Z,7.1
2022-10-07T16:36:57.368Z,11.5
2022-10-07T16:52:39.657Z,7.7
2022-10-07T17:08:22.458Z,9.89
2022-10-07T17:24:05.524Z,10.5
2022-10-07T17:39:48.095Z,10.8
2022-10-07T17:55:30.678Z,10.8
2022-10-07T18:11:12.842Z,11.6
2022-10-07T18:26:55.449Z,13.6
2022-10-07T18:42:37.690Z,16.9
2022-10-07T18:58:20.742Z,12.3
2022-10-07T19:14:02.940Z,13.1
2022-10-07T19:29:45.934Z,16.2
2022-10-07T19:45:28.393Z,16.4
2022-10-07T20:01:10.689Z,17.79
2022-10-07T20:16:53.749Z,14.8
2022-10-07T20:32:36.087Z,18.5
2022-10-07T20:48:19.187Z,16.7
2022-10-07T21:04:01.248Z,16
2022-10-07T21:19:43.503Z,16.2
2022-10-07T21:35:25.838Z,15.1
2022-10-07T21:51:08.371Z,14.6
2022-10-07T22:06:51.180Z,15.1
2022-10-07T22:22:33.301Z,12.9
2022-10-07T22:38:16.320Z,15.4
2022-10-07T22:53:58.733Z,13.7
2022-10-07T23:09:41.541Z,17.1
2022-10-07T23:25:24.119Z,15.1
2022-10-07T23:41:06.597Z,17.4
2022-10-07T23:56:49.507Z,17.5
